Time;durP1;ratioP1;P1;durP2;ratioP2;P2;SDS_P1;SDS_P2;PMS_P1;PMS_P2;Temp;Humidity;BMP_temperature;BMP_pressure;BME280_temperature;BME280_humidity;BME280_pressure;Samples;Min_cycle;Max_cycle;Signal;HPM_P1;HPM_P2
2023/05/22 00:01:48;;;;;;;42.70;31.40;;;18.60;99.90;;;;;;5091704;28;20459;-71
2023/05/22 00:04:20;;;;;;;43.33;29.92;;;18.70;99.90;;;;;;5091753;28;20441;-71
2023/05/22 00:06:46;;;;;;;40.65;29.55;;;18.80;99.90;;;;;;5091973;28;20392;-74
2023/05/22 00:09:12;;;;;;;41.60;30.20;;;18.80;99.10;;;;;;5091838;28;20742;-70
2023/05/22 00:11:38;;;;;;;40.87;30.40;;;18.80;99.90;;;;;;5091256;28;20476;-72
2023/05/22 00:14:04;;;;;;;40.70;29.42;;;18.70;99.90;;;;;;5091736;28;20388;-71
2023/05/22 00:16:30;;;;;;;42.28;30.27;;;18.70;99.90;;;;;;5092074;28;20440;-72
2023/05/22 00:18:56;;;;;;;38.97;29.60;;;18.60;99.90;;;;;;5091797;28;20406;-72
2023/05/22 00:21:23;;;;;;;39.80;29.00;;;18.60;99.90;;;;;;5091606;28;20398;-72
2023/05/22 00:23:49;;;;;;;40.97;29.02;;;18.60;99.90;;;;;;5091374;28;20507;-72
2023/05/22 00:26:15;;;;;;;35.38;26.50;;;18.60;99.90;;;;;;5091540;28;20407;-72
2023/05/22 00:28:41;;;;;;;38.53;27.10;;;18.60;99.90;;;;;;5091768;28;20382;-72
2023/05/22 00:31:06;;;;;;;39.17;27.60;;;18.60;98.50;;;;;;5091354;28;20378;-72
2023/05/22 00:33:33;;;;;;;33.63;26.00;;;18.60;99.30;;;;;;5091863;28;20731;-73
2023/05/22 00:35:58;;;;;;;34.63;26.97;;;18.50;98.90;;;;;;5092041;28;20461;-71
2023/05/22 00:38:33;;;;;;;38.37;27.73;;;18.40;99.90;;;;;;5091329;28;20485;-71
2023/05/22 00:41:00;;;;;;;36.65;26.70;;;18.40;99.90;;;;;;5091802;28;20397;-72
2023/05/22 00:43:26;;;;;;;38.25;26.42;;;18.60;99.90;;;;;;5091429;28;20382;-72
2023/05/22 00:45:52;;;;;;;33.97;25.57;;;18.60;99.50;;;;;;5091269;28;20378;-71
2023/05/22 00:48:18;;;;;;;35.28;26.20;;;18.50;99.60;;;;;;5092178;28;20384;-74
2023/05/22 00:50:44;;;;;;;35.63;26.58;;;18.50;99.90;;;;;;5092264;28;20377;-72
2023/05/22 00:53:10;;;;;;;34.03;26.60;;;18.40;99.90;;;;;;5090790;28;20466;-72
2023/05/22 00:55:35;;;;;;;36.95;27.75;;;18.40;99.90;;;;;;5091097;28;20683;-71
2023/05/22 00:58:08;;;;;;;39.40;26.75;;;18.40;99.90;;;;;;5090867;28;20808;-72
2023/05/22 01:00:38;;;;;;;36.45;25.73;;;18.40;99.90;;;;;;5090850;28;20382;-73
2023/05/22 01:03:06;;;;;;;37.07;27.00;;;18.30;99.90;;;;;;5090883;28;20374;-72
2023/05/22 01:05:33;;;;;;;35.22;25.95;;;18.30;99.90;;;;;;5090838;28;20746;-72
2023/05/22 01:07:59;;;;;;;37.58;27.88;;;18.10;99.90;;;;;;5090869;28;20461;-72
2023/05/22 01:10:26;;;;;;;35.15;27.45;;;18.10;99.90;;;;;;5090725;28;20465;-73
2023/05/22 01:13:14;;;;;;;37.25;27.80;;;18.20;99.90;;;;;;5090755;28;20435;-71
2023/05/22 01:15:54;;;;;;;35.15;27.23;;;18.00;99.90;;;;;;5090813;28;20377;-70
2023/05/22 01:18:31;;;;;;;33.90;26.40;;;18.00;99.90;;;;;;5090790;28;20397;-72
2023/05/22 01:21:09;;;;;;;35.22;27.83;;;17.90;99.90;;;;;;5090499;28;20400;-73
2023/05/22 01:23:52;;;;;;;39.53;28.77;;;17.90;99.90;;;;;;5090573;28;20397;-71
2023/05/22 01:26:25;;;;;;;36.70;27.95;;;17.90;99.90;;;;;;5090778;28;20451;-72
2023/05/22 01:28:51;;;;;;;38.10;28.45;;;17.90;99.90;;;;;;5090659;28;20377;-72
2023/05/22 01:31:23;;;;;;;40.92;29.15;;;17.80;99.90;;;;;;5090489;28;20652;-73
2023/05/22 01:33:53;;;;;;;37.58;27.23;;;17.70;99.90;;;;;;5091192;28;20390;-71
2023/05/22 01:36:21;;;;;;;43.97;31.55;;;17.50;99.90;;;;;;5090902;28;20382;-72
2023/05/22 01:38:47;;;;;;;42.67;28.80;;;17.50;99.90;;;;;;5090737;28;20767;-72
2023/05/22 01:41:13;;;;;;;38.83;27.65;;;17.70;99.90;;;;;;5090540;28;20371;-72
2023/05/22 01:43:40;;;;;;;40.13;30.00;;;17.80;99.90;;;;;;5090756;28;20382;-71
2023/05/22 01:46:05;;;;;;;43.70;31.63;;;17.60;99.90;;;;;;5090906;28;20382;-71
2023/05/22 01:48:31;;;;;;;39.83;30.20;;;17.40;99.90;;;;;;5090389;28;20382;-73
2023/05/22 01:51:03;;;;;;;40.58;30.55;;;17.30;99.90;;;;;;5091211;28;20465;-73
2023/05/22 01:53:56;;;;;;;42.28;31.23;;;17.20;99.90;;;;;;5089791;28;20386;-72
2023/05/22 01:56:54;;;;;;;39.72;30.25;;;17.20;99.90;;;;;;5084187;28;20401;-72
2023/05/22 01:59:42;;;;;;;41.00;30.60;;;17.50;99.90;;;;;;5074911;28;20417;-74
2023/05/22 02:02:10;;;;;;;38.77;29.97;;;17.20;99.90;;;;;;5089044;28;20397;-72
2023/05/22 02:04:42;;;;;;;44.30;32.30;;;17.20;99.90;;;;;;5091648;28;20402;-73
2023/05/22 02:07:11;;;;;;;41.15;32.30;;;17.00;99.90;;;;;;5080244;28;20395;-72
2023/05/22 02:09:39;;;;;;;44.63;32.70;;;16.90;99.90;;;;;;5090468;28;20485;-72
2023/05/22 02:12:05;;;;;;;42.10;31.70;;;17.00;99.90;;;;;;5089594;28;20378;-71
2023/05/22 02:14:30;;;;;;;41.50;30.55;;;17.00;99.90;;;;;;5091045;28;20397;-72
2023/05/22 02:16:57;;;;;;;40.13;31.23;;;17.10;99.90;;;;;;5090329;28;20370;-73
2023/05/22 02:19:23;;;;;;;42.47;31.05;;;17.10;99.90;;;;;;5089895;28;20402;-73
2023/05/22 02:21:48;;;;;;;39.40;29.88;;;17.10;99.90;;;;;;5090139;28;20406;-71
2023/05/22 02:24:14;;;;;;;41.23;30.43;;;17.20;99.90;;;;;;5089972;28;20406;-72
2023/05/22 02:26:41;;;;;;;39.85;29.98;;;17.20;99.90;;;;;;5089963;28;20374;-73
2023/05/22 02:29:07;;;;;;;35.33;28.40;;;17.30;99.90;;;;;;5090241;28;20461;-71
2023/05/22 02:31:32;;;;;;;38.28;29.83;;;17.30;99.90;;;;;;5089692;28;20433;-71
2023/05/22 02:33:58;;;;;;;43.73;30.40;;;17.30;99.90;;;;;;5091128;28;20958;-72
2023/05/22 02:36:25;;;;;;;43.43;30.40;;;17.20;99.90;;;;;;5093581;28;20390;-71
2023/05/22 02:38:50;;;;;;;41.25;31.52;;;17.20;99.90;;;;;;5093496;28;20979;-72
2023/05/22 02:41:16;;;;;;;48.28;31.40;;;17.20;99.90;;;;;;5093563;28;20390;-73
2023/05/22 02:43:42;;;;;;;44.17;30.60;;;17.30;99.90;;;;;;5094360;28;20414;-74
2023/05/22 02:46:07;;;;;;;46.28;31.25;;;17.20;99.90;;;;;;5093656;28;20378;-72
2023/05/22 02:48:33;;;;;;;47.47;33.53;;;17.00;99.90;;;;;;5093545;28;20866;-74
2023/05/22 02:50:59;;;;;;;48.10;33.80;;;16.90;99.90;;;;;;5092953;28;20856;-73
2023/05/22 02:53:24;;;;;;;51.08;36.67;;;16.80;99.90;;;;;;5093281;28;20965;-73
2023/05/22 02:55:51;;;;;;;59.50;37.83;;;16.60;99.90;;;;;;5093227;28;20409;-73
2023/05/22 02:58:17;;;;;;;53.05;37.70;;;16.50;99.90;;;;;;5093037;28;20394;-75
2023/05/22 03:00:44;;;;;;;56.40;37.67;;;16.60;99.90;;;;;;5093220;28;20374;-73
2023/05/22 03:03:10;;;;;;;52.55;37.55;;;16.40;99.90;;;;;;5093082;28;20805;-73
2023/05/22 03:05:35;;;;;;;52.00;38.05;;;16.20;99.90;;;;;;5092997;28;20406;-73
2023/05/22 03:08:01;;;;;;;56.10;39.10;;;16.20;99.90;;;;;;5091724;28;20402;-75
2023/05/22 03:10:26;;;;;;;52.90;38.27;;;16.10;99.90;;;;;;5093007;28;20431;-73
2023/05/22 03:12:52;;;;;;;54.70;38.75;;;16.40;99.90;;;;;;5092850;28;20378;-74
2023/05/22 03:15:18;;;;;;;51.80;37.30;;;16.50;99.90;;;;;;5091719;28;20370;-72
2023/05/22 03:17:43;;;;;;;51.67;37.80;;;16.30;99.90;;;;;;5093447;28;20386;-73
2023/05/22 03:20:10;;;;;;;59.70;39.23;;;16.50;99.90;;;;;;5094535;28;20900;-73
2023/05/22 03:22:35;;;;;;;50.00;38.37;;;16.50;99.90;;;;;;5096290;28;20386;-73
2023/05/22 03:25:01;;;;;;;53.40;37.30;;;16.60;99.90;;;;;;5100186;28;20731;-75
2023/05/22 03:27:26;;;;;;;53.20;37.40;;;16.70;99.90;;;;;;5098898;28;20406;-75
2023/05/22 03:29:52;;;;;;;50.08;35.70;;;16.70;99.90;;;;;;5101089;28;20386;-73
2023/05/22 03:32:18;;;;;;;51.47;35.55;;;16.70;99.90;;;;;;5100970;28;20443;-72
2023/05/22 03:34:43;;;;;;;50.10;36.00;;;16.80;99.90;;;;;;5100239;28;20390;-74
2023/05/22 03:37:09;;;;;;;49.10;34.83;;;16.80;99.90;;;;;;5099241;28;20421;-74
2023/05/22 03:39:35;;;;;;;46.50;33.63;;;16.80;99.90;;;;;;5098012;28;20401;-74
2023/05/22 03:42:01;;;;;;;46.65;33.60;;;16.80;99.90;;;;;;5096180;28;20393;-76
2023/05/22 03:44:26;;;;;;;47.22;33.85;;;16.80;99.90;;;;;;5098809;28;20378;-75
2023/05/22 03:46:52;;;;;;;49.33;35.15;;;16.80;99.90;;;;;;5099151;28;20421;-75
2023/05/22 03:49:17;;;;;;;46.70;34.92;;;16.80;99.90;;;;;;5095270;28;20393;-75
2023/05/22 03:51:43;;;;;;;47.50;33.67;;;16.80;99.90;;;;;;5095487;28;20378;-74
2023/05/22 03:54:08;;;;;;;48.00;34.20;;;16.80;99.90;;;;;;5094965;28;20382;-74
2023/05/22 03:56:34;;;;;;;45.83;33.08;;;16.70;99.90;;;;;;5094174;28;20413;-72
2023/05/22 03:59:00;;;;;;;45.65;33.95;;;16.80;99.90;;;;;;5094080;28;20398;-74
2023/05/22 04:01:25;;;;;;;46.03;33.70;;;16.70;99.90;;;;;;5094079;28;20382;-73
2023/05/22 04:03:51;;;;;;;48.23;35.00;;;16.70;99.90;;;;;;5094686;28;20374;-77
2023/05/22 04:06:20;;;;;;;48.10;34.90;;;16.70;99.90;;;;;;5095934;28;20397;-74
2023/05/22 04:08:47;;;;;;;46.83;33.90;;;16.70;99.90;;;;;;5096280;28;20441;-74
2023/05/22 04:11:14;;;;;;;51.85;35.03;;;16.70;99.90;;;;;;5095401;28;20431;-74
2023/05/22 04:13:40;;;;;;;44.67;33.53;;;16.80;99.90;;;;;;5096981;28;20382;-75
2023/05/22 04:16:06;;;;;;;45.60;33.80;;;16.80;99.90;;;;;;5096883;28;20382;-74
2023/05/22 04:18:31;;;;;;;48.20;35.13;;;16.80;99.90;;;;;;5096369;28;20923;-73
2023/05/22 04:20:57;;;;;;;47.37;34.83;;;16.70;99.90;;;;;;5095420;28;20448;-76
2023/05/22 04:23:22;;;;;;;49.17;34.87;;;16.80;99.90;;;;;;5096242;28;20378;-75
2023/05/22 04:25:49;;;;;;;45.45;34.95;;;16.70;99.90;;;;;;5093070;28;20435;-74
2023/05/22 04:28:21;;;;;;;45.08;33.70;;;16.80;99.90;;;;;;5093104;28;20758;-76
2023/05/22 04:30:47;;;;;;;46.60;33.65;;;16.90;99.90;;;;;;5092230;28;20949;-76
2023/05/22 04:33:13;;;;;;;45.35;33.25;;;16.90;99.90;;;;;;5092140;28;20382;-75
2023/05/22 04:35:39;;;;;;;44.63;32.90;;;17.00;99.90;;;;;;5091600;28;20377;-74
2023/05/22 04:38:05;;;;;;;50.42;34.80;;;17.10;99.90;;;;;;5092286;28;20941;-74
2023/05/22 04:40:32;;;;;;;46.90;34.13;;;17.10;99.90;;;;;;5093232;28;20407;-75
2023/05/22 04:42:58;;;;;;;51.90;36.10;;;17.10;99.90;;;;;;5092175;28;20384;-74
2023/05/22 04:45:24;;;;;;;50.38;36.60;;;17.10;99.90;;;;;;5092448;28;20764;-74
2023/05/22 04:47:53;;;;;;;53.45;37.10;;;17.10;99.90;;;;;;5091040;28;20417;-74
2023/05/22 04:50:19;;;;;;;56.72;38.92;;;17.10;99.90;;;;;;5092082;28;20385;-74
2023/05/22 04:52:46;;;;;;;55.15;39.10;;;16.90;99.90;;;;;;5091772;28;20393;-75
2023/05/22 04:55:11;;;;;;;53.03;38.60;;;16.90;99.90;;;;;;5091683;28;20392;-74
2023/05/22 04:57:38;;;;;;;56.25;38.95;;;16.90;99.90;;;;;;5091595;28;20381;-74
2023/05/22 05:00:05;;;;;;;60.87;40.00;;;16.90;99.90;;;;;;5091593;28;20970;-73
2023/05/22 05:02:31;;;;;;;60.10;39.80;;;16.90;99.90;;;;;;5091247;28;20384;-75
2023/05/22 05:04:56;;;;;;;61.10;40.23;;;16.90;99.90;;;;;;5091802;28;20754;-74
2023/05/22 05:07:22;;;;;;;56.90;40.90;;;17.00;99.90;;;;;;5092080;28;20450;-72
2023/05/22 05:09:48;;;;;;;63.05;40.33;;;16.90;99.90;;;;;;5092425;28;20412;-75
2023/05/22 05:12:14;;;;;;;51.40;37.60;;;17.20;99.90;;;;;;5092066;28;20374;-75
2023/05/22 05:14:40;;;;;;;56.35;39.92;;;17.40;99.90;;;;;;5091451;28;20526;-74
2023/05/22 05:17:06;;;;;;;56.07;39.23;;;17.30;99.90;;;;;;5091841;28;20861;-74
2023/05/22 05:19:31;;;;;;;49.85;37.78;;;17.40;99.90;;;;;;5092394;28;20397;-74
2023/05/22 05:21:57;;;;;;;54.45;37.95;;;17.50;99.90;;;;;;5091601;28;20401;-73
2023/05/22 05:24:22;;;;;;;53.80;39.30;;;17.40;99.90;;;;;;5092017;28;20381;-71
2023/05/22 05:26:49;;;;;;;56.60;39.27;;;17.30;99.90;;;;;;5092344;28;20459;-76
2023/05/22 05:29:15;;;;;;;57.45;40.63;;;17.30;99.90;;;;;;5092545;28;20407;-74
2023/05/22 05:31:41;;;;;;;55.83;40.43;;;17.40;99.90;;;;;;5090979;28;20601;-73
2023/05/22 05:34:06;;;;;;;57.90;41.08;;;17.30;99.90;;;;;;5092231;28;20381;-75
2023/05/22 05:36:32;;;;;;;57.70;41.73;;;17.60;99.90;;;;;;5090478;28;20398;-73
2023/05/22 05:38:57;;;;;;;56.97;39.93;;;17.50;99.90;;;;;;5092056;28;20398;-74
2023/05/22 05:41:23;;;;;;;57.72;40.30;;;17.70;99.90;;;;;;5092851;28;20378;-75
2023/05/22 05:43:51;;;;;;;59.55;43.10;;;17.70;99.90;;;;;;5097795;28;20374;-73
2023/05/22 05:46:17;;;;;;;62.38;42.25;;;17.70;99.90;;;;;;5102195;28;20397;-74
2023/05/22 05:48:42;;;;;;;64.20;44.67;;;17.70;99.90;;;;;;5099292;28;20370;-74
2023/05/22 05:51:08;;;;;;;58.10;42.97;;;17.70;99.90;;;;;;5105931;28;20431;-73
2023/05/22 05:53:35;;;;;;;59.72;43.40;;;17.70;99.90;;;;;;5107972;28;20691;-74
2023/05/22 05:56:02;;;;;;;64.53;44.63;;;17.60;99.90;;;;;;5096755;28;20502;-73
2023/05/22 05:58:27;;;;;;;61.15;44.72;;;17.70;99.90;;;;;;5089902;28;20400;-74
2023/05/22 06:00:53;;;;;;;69.63;45.67;;;17.70;99.90;;;;;;5091118;28;20398;-74
2023/05/22 06:03:19;;;;;;;66.70;45.83;;;17.70;99.90;;;;;;5091360;28;20382;-74
2023/05/22 06:05:48;;;;;;;68.30;46.60;;;17.90;99.90;;;;;;5091601;28;20461;-76
2023/05/22 06:08:14;;;;;;;63.28;45.92;;;18.00;99.90;;;;;;5092601;28;20382;-74
2023/05/22 06:10:40;;;;;;;62.47;46.03;;;18.10;99.90;;;;;;5094687;28;20461;-72
2023/05/22 06:13:05;;;;;;;67.23;46.80;;;18.10;99.90;;;;;;5094528;28;20478;-74
2023/05/22 06:15:31;;;;;;;65.18;46.33;;;18.20;99.90;;;;;;5094472;28;20793;-74
2023/05/22 06:17:57;;;;;;;65.78;46.88;;;18.30;99.90;;;;;;5094601;28;20467;-75
2023/05/22 06:20:24;;;;;;;64.40;46.70;;;18.20;99.90;;;;;;5095017;28;20402;-75
2023/05/22 06:22:50;;;;;;;66.15;46.97;;;18.10;99.90;;;;;;5095136;28;20389;-75
2023/05/22 06:25:16;;;;;;;65.82;47.75;;;18.10;99.90;;;;;;5096312;28;20512;-75
2023/05/22 06:27:42;;;;;;;71.63;48.03;;;18.30;99.90;;;;;;5095451;28;20446;-74
2023/05/22 06:30:08;;;;;;;72.65;48.20;;;18.30;99.90;;;;;;5094996;28;20867;-74
2023/05/22 06:32:33;;;;;;;66.20;47.83;;;18.40;99.90;;;;;;5095895;28;20375;-73
2023/05/22 06:34:59;;;;;;;71.18;49.47;;;18.40;99.90;;;;;;5096521;28;20408;-75
2023/05/22 06:37:25;;;;;;;68.32;48.60;;;18.50;99.90;;;;;;5095122;28;20373;-75
2023/05/22 06:39:50;;;;;;;68.27;49.00;;;18.50;99.90;;;;;;5094619;28;20405;-75
2023/05/22 06:42:16;;;;;;;73.33;49.07;;;18.60;99.20;;;;;;5096704;28;20475;-74
2023/05/22 06:44:41;;;;;;;66.80;48.13;;;19.00;96.60;;;;;;5094305;28;20382;-73
2023/05/22 06:47:07;;;;;;;67.03;47.87;;;19.30;92.40;;;;;;5093852;28;20406;-74
2023/05/22 06:49:33;;;;;;;67.68;48.33;;;19.30;90.80;;;;;;5094349;28;20381;-73
2023/05/22 06:51:58;;;;;;;70.20;49.63;;;19.40;94.00;;;;;;5093489;28;20394;-76
2023/05/22 06:54:27;;;;;;;67.43;49.30;;;19.70;88.60;;;;;;5106523;28;20386;-73
2023/05/22 06:56:53;;;;;;;64.00;47.35;;;19.90;85.10;;;;;;5099512;28;20746;-73
2023/05/22 06:59:19;;;;;;;67.70;47.85;;;20.10;82.70;;;;;;5094078;28;20547;-75
2023/05/22 07:01:45;;;;;;;71.20;48.22;;;20.40;77.80;;;;;;5093704;28;20412;-73
2023/05/22 07:04:12;;;;;;;67.88;48.60;;;20.50;75.30;;;;;;5093514;28;20484;-74
2023/05/22 07:06:40;;;;;;;70.82;49.78;;;20.70;73.80;;;;;;5093304;28;21203;-74
2023/05/22 07:09:07;;;;;;;72.75;50.03;;;20.80;71.00;;;;;;5093849;28;20382;-74
2023/05/22 07:11:34;;;;;;;70.43;49.83;;;20.80;72.30;;;;;;5091955;28;20381;-75
2023/05/22 07:14:00;;;;;;;66.68;48.20;;;20.90;69.50;;;;;;5093206;28;20465;-76
2023/05/22 07:16:26;;;;;;;69.50;50.27;;;20.80;68.70;;;;;;5093582;28;20870;-75
2023/05/22 07:18:52;;;;;;;72.67;50.70;;;20.80;70.60;;;;;;5093729;28;20394;-74
2023/05/22 07:21:17;;;;;;;74.30;51.75;;;20.90;68.60;;;;;;5092620;28;20913;-72
2023/05/22 07:23:43;;;;;;;74.07;53.13;;;20.80;67.40;;;;;;5094865;28;20769;-74
2023/05/22 07:26:09;;;;;;;78.77;53.30;;;20.60;68.90;;;;;;5093530;28;20814;-75
2023/05/22 07:28:34;;;;;;;82.07;54.50;;;20.50;72.80;;;;;;5093738;28;20433;-75
2023/05/22 07:31:00;;;;;;;85.83;56.47;;;20.50;70.90;;;;;;5092922;28;20418;-73
2023/05/22 07:33:26;;;;;;;84.43;56.73;;;20.30;74.60;;;;;;5092962;28;20382;-75
2023/05/22 07:35:51;;;;;;;88.05;57.30;;;20.40;73.10;;;;;;5093899;28;20472;-73
2023/05/22 07:38:17;;;;;;;84.63;56.88;;;20.50;71.00;;;;;;5093555;28;20378;-75
2023/05/22 07:40:43;;;;;;;83.50;55.70;;;20.40;72.70;;;;;;5093630;28;20731;-76
2023/05/22 07:43:09;;;;;;;81.93;55.45;;;20.70;71.90;;;;;;5093675;28;20378;-75
2023/05/22 07:45:34;;;;;;;86.70;54.35;;;20.60;70.10;;;;;;5092857;28;20390;-73
2023/05/22 07:48:02;;;;;;;89.10;54.20;;;20.50;70.80;;;;;;5092684;28;20373;-73
2023/05/22 07:50:29;;;;;;;83.07;55.65;;;20.30;72.50;;;;;;5093009;28;20371;-75
2023/05/22 07:52:54;;;;;;;88.65;55.85;;;20.30;73.00;;;;;;5092551;28;20370;-75
2023/05/22 07:55:20;;;;;;;87.15;57.08;;;20.20;73.50;;;;;;5093429;28;20375;-74
2023/05/22 07:57:46;;;;;;;92.90;56.30;;;20.10;72.80;;;;;;5092854;28;20382;-75
2023/05/22 08:00:13;;;;;;;87.37;57.30;;;20.10;72.90;;;;;;5092710;28;20914;-73
2023/05/22 08:02:39;;;;;;;92.38;55.85;;;20.30;72.00;;;;;;5092242;28;20386;-73
2023/05/22 08:05:06;;;;;;;89.25;57.95;;;20.50;68.80;;;;;;5092055;28;20789;-73
2023/05/22 08:07:32;;;;;;;81.50;54.75;;;20.40;69.30;;;;;;5092447;28;20403;-74
2023/05/22 08:09:58;;;;;;;86.50;57.20;;;20.50;65.30;;;;;;5092042;28;20388;-73
2023/05/22 08:12:23;;;;;;;89.57;57.25;;;20.40;66.10;;;;;;5092562;28;20449;-74
2023/05/22 08:14:49;;;;;;;85.23;56.43;;;20.30;66.50;;;;;;5092313;28;20382;-75
2023/05/22 08:17:14;;;;;;;88.25;57.20;;;20.30;68.70;;;;;;5092247;28;20382;-74
2023/05/22 08:19:40;;;;;;;86.67;54.87;;;20.20;68.30;;;;;;5091599;28;20402;-75
2023/05/22 08:22:06;;;;;;;87.30;56.10;;;20.00;68.90;;;;;;5092050;28;20374;-74
2023/05/22 08:24:31;;;;;;;83.22;55.35;;;19.90;71.30;;;;;;5092071;28;20940;-74
2023/05/22 08:26:57;;;;;;;85.50;56.67;;;19.80;72.00;;;;;;5092069;28;20390;-73
2023/05/22 08:29:23;;;;;;;100.68;59.67;;;20.00;73.30;;;;;;5091768;28;20413;-75
2023/05/22 08:31:49;;;;;;;80.55;54.42;;;20.10;70.50;;;;;;5091879;28;20479;-74
2023/05/22 08:34:14;;;;;;;75.53;50.92;;;20.20;70.50;;;;;;5092100;28;20382;-75
2023/05/22 08:36:40;;;;;;;74.72;50.85;;;20.20;68.40;;;;;;5092259;28;20386;-75
2023/05/22 08:39:07;;;;;;;75.97;50.30;;;20.00;71.20;;;;;;5091993;28;20421;-73
2023/05/22 08:41:33;;;;;;;76.10;48.83;;;20.20;73.10;;;;;;5091197;28;20390;-75
2023/05/22 08:43:58;;;;;;;69.63;48.23;;;20.30;69.90;;;;;;5091868;28;20472;-74
2023/05/22 08:46:27;;;;;;;65.90;46.45;;;20.40;69.30;;;;;;5091943;28;20382;-74
2023/05/22 08:48:57;;;;;;;73.45;47.15;;;20.30;68.00;;;;;;5092045;28;20385;-75
2023/05/22 08:51:27;;;;;;;74.85;48.35;;;20.40;68.80;;;;;;5091511;28;20446;-76
2023/05/22 08:53:55;;;;;;;74.00;49.88;;;20.60;64.50;;;;;;5092400;28;20382;-76
2023/05/22 08:56:21;;;;;;;68.75;44.70;;;20.70;64.60;;;;;;5091881;28;20382;-74
2023/05/22 08:58:48;;;;;;;62.90;45.70;;;20.80;62.30;;;;;;5091775;28;20463;-73
2023/05/22 09:01:16;;;;;;;69.57;46.67;;;20.80;60.50;;;;;;5091070;28;20418;-73
2023/05/22 09:03:42;;;;;;;68.15;45.67;;;20.80;59.60;;;;;;5092522;28;20765;-74
2023/05/22 09:06:09;;;;;;;68.72;46.85;;;20.80;60.60;;;;;;5091685;28;20905;-76
2023/05/22 09:08:36;;;;;;;70.47;47.38;;;20.70;62.90;;;;;;5090189;28;20400;-75
2023/05/22 09:11:02;;;;;;;72.63;48.55;;;20.70;63.00;;;;;;5091328;28;20447;-75
2023/05/22 09:13:29;;;;;;;70.47;47.58;;;20.60;64.60;;;;;;5091926;28;20382;-74
2023/05/22 09:16:11;;;;;;;76.93;48.60;;;20.70;61.60;;;;;;5090830;28;20898;-75
2023/05/22 09:18:38;;;;;;;70.45;47.00;;;20.70;63.40;;;;;;5092298;28;20414;-74
2023/05/22 09:21:05;;;;;;;68.47;46.28;;;20.90;64.30;;;;;;5092642;28;20390;-73
2023/05/22 09:23:31;;;;;;;75.35;49.95;;;20.70;63.40;;;;;;5093950;28;20470;-72
2023/05/22 09:25:58;;;;;;;73.33;49.47;;;20.60;66.00;;;;;;5094201;28;20558;-74
2023/05/22 09:28:24;;;;;;;69.63;48.80;;;20.50;64.40;;;;;;5091873;28;20416;-74
2023/05/22 09:30:51;;;;;;;80.18;51.50;;;20.70;62.50;;;;;;5090856;28;20465;-72
2023/05/22 09:33:17;;;;;;;71.87;48.00;;;21.00;62.10;;;;;;5091651;28;20389;-72
2023/05/22 09:35:45;;;;;;;74.85;49.60;;;21.40;56.30;;;;;;5091877;28;20389;-73
2023/05/22 09:38:12;;;;;;;68.45;47.85;;;21.60;54.00;;;;;;5100220;28;20875;-73
2023/05/22 09:40:39;;;;;;;70.47;49.58;;;21.50;51.80;;;;;;5091036;28;20516;-72
2023/05/22 09:43:11;;;;;;;74.00;49.70;;;21.30;53.90;;;;;;5092524;28;20447;-73
2023/05/22 09:45:37;;;;;;;70.85;47.35;;;21.30;55.40;;;;;;5094874;28;20466;-73
2023/05/22 09:48:08;;;;;;;70.22;46.90;;;21.60;52.40;;;;;;5095491;28;20374;-73
2023/05/22 09:50:35;;;;;;;70.90;47.50;;;21.70;53.30;;;;;;5094581;28;20394;-72
2023/05/22 09:53:02;;;;;;;70.20;47.07;;;22.00;48.10;;;;;;5094525;28;20927;-73
2023/05/22 09:55:28;;;;;;;67.55;46.13;;;21.90;47.30;;;;;;5094729;28;20386;-74
2023/05/22 09:57:55;;;;;;;68.20;45.70;;;22.10;47.10;;;;;;5095035;28;20385;-74
2023/05/22 10:00:22;;;;;;;72.35;48.03;;;22.30;45.20;;;;;;5094715;28;20401;-72
2023/05/22 10:02:53;;;;;;;70.05;47.45;;;22.40;44.30;;;;;;5094348;28;20875;-72
2023/05/22 10:05:20;;;;;;;67.80;45.92;;;22.40;43.20;;;;;;5094176;28;20382;-72
2023/05/22 10:07:55;;;;;;;74.20;47.95;;;22.30;43.20;;;;;;5094027;28;20377;-72
2023/05/22 10:10:23;;;;;;;65.30;44.83;;;22.20;45.60;;;;;;5092732;28;20386;-73
2023/05/22 10:12:58;;;;;;;67.03;45.90;;;22.40;44.30;;;;;;5094052;28;20382;-73
2023/05/22 10:15:25;;;;;;;63.47;43.90;;;22.40;43.20;;;;;;5094114;28;20374;-73
2023/05/22 10:17:51;;;;;;;72.65;46.08;;;22.60;42.60;;;;;;5094346;28;20396;-72
2023/05/22 10:20:16;;;;;;;62.67;44.03;;;22.50;40.60;;;;;;5094264;28;20492;-72
2023/05/22 10:22:42;;;;;;;65.97;44.83;;;22.40;39.60;;;;;;5094206;28;20813;-73
2023/05/22 10:25:09;;;;;;;64.22;43.97;;;22.10;42.40;;;;;;5094192;28;20439;-73
2023/05/22 10:27:35;;;;;;;66.70;45.22;;;22.00;45.00;;;;;;5093951;28;20469;-72
2023/05/22 10:30:34;;;;;;;70.40;46.53;;;21.90;48.10;;;;;;5094321;28;20437;-73
2023/05/22 10:33:05;;;;;;;68.00;47.28;;;21.70;47.10;;;;;;5095262;28;20472;-72
2023/05/22 10:36:03;;;;;;;69.50;46.50;;;21.80;46.90;;;;;;5095621;28;20413;-74
2023/05/22 10:38:54;;;;;;;70.35;45.67;;;22.00;45.50;;;;;;5095786;28;20406;-73
2023/05/22 10:41:21;;;;;;;67.13;45.70;;;22.30;42.50;;;;;;5093296;28;20403;-74
2023/05/22 10:43:50;;;;;;;63.47;44.27;;;22.40;41.30;;;;;;5093774;28;20410;-73
2023/05/22 10:46:16;;;;;;;70.45;47.83;;;22.00;42.50;;;;;;5093666;28;20465;-73
2023/05/22 10:48:46;;;;;;;67.40;46.88;;;21.90;45.50;;;;;;5093489;28;20432;-74
2023/05/22 10:51:19;;;;;;;69.40;46.33;;;22.20;41.80;;;;;;5093323;28;20457;-73
2023/05/22 10:53:56;;;;;;;64.60;45.35;;;22.60;39.90;;;;;;5092956;28;20939;-73
2023/05/22 10:56:22;;;;;;;69.27;45.50;;;23.00;38.40;;;;;;5094663;28;20808;-73
2023/05/22 10:59:03;;;;;;;71.13;46.20;;;23.10;35.90;;;;;;5093878;28;20408;-73
2023/05/22 11:01:32;;;;;;;71.22;46.17;;;22.90;37.20;;;;;;5094659;28;20435;-72
2023/05/22 11:04:00;;;;;;;70.22;46.58;;;22.70;38.00;;;;;;5094125;28;20382;-73
2023/05/22 11:07:01;;;;;;;71.40;47.47;;;22.40;41.50;;;;;;5093420;28;20374;-74
2023/05/22 11:09:32;;;;;;;69.53;48.35;;;22.40;41.50;;;;;;5067453;28;20421;-74
2023/05/22 11:12:15;;;;;;;66.97;45.92;;;22.60;39.80;;;;;;5098200;28;20382;-79
2023/05/22 11:14:41;;;;;;;74.80;46.15;;;22.90;39.90;;;;;;5093576;28;20378;-74
2023/05/22 11:17:07;;;;;;;67.57;44.40;;;22.80;39.90;;;;;;5093813;28;20386;-73
2023/05/22 11:19:33;;;;;;;65.07;44.00;;;22.90;40.00;;;;;;5096276;28;20975;-73
2023/05/22 11:22:00;;;;;;;74.93;47.60;;;23.00;39.30;;;;;;5093474;28;20418;-73
2023/05/22 11:24:32;;;;;;;71.23;48.10;;;22.90;41.40;;;;;;5093755;28;20756;-74
2023/05/22 11:27:03;;;;;;;71.40;47.58;;;22.80;39.60;;;;;;5093520;28;20374;-73
2023/05/22 11:29:29;;;;;;;74.20;49.38;;;22.90;42.40;;;;;;5093739;28;20724;-74
2023/05/22 11:31:56;;;;;;;79.90;50.13;;;22.70;41.20;;;;;;5093741;28;20739;-74
2023/05/22 11:34:23;;;;;;;72.45;48.47;;;22.50;43.20;;;;;;5093112;28;20409;-74
2023/05/22 11:36:50;;;;;;;75.40;49.10;;;22.40;43.30;;;;;;5093744;28;20388;-74
2023/05/22 11:39:16;;;;;;;85.38;51.80;;;22.60;42.20;;;;;;5093981;28;20469;-75
2023/05/22 11:41:41;;;;;;;77.30;49.90;;;22.50;44.30;;;;;;5093744;28;20454;-73
2023/05/22 11:44:07;;;;;;;77.68;49.88;;;22.60;45.20;;;;;;5093866;28;20385;-72
2023/05/22 11:46:33;;;;;;;75.43;51.07;;;22.80;41.60;;;;;;5094557;28;20401;-75
2023/05/22 11:48:59;;;;;;;71.77;47.17;;;23.00;41.80;;;;;;5095791;28;20390;-74
2023/05/22 11:51:27;;;;;;;69.55;46.10;;;23.10;40.50;;;;;;5097058;28;20386;-73
2023/05/22 11:53:52;;;;;;;77.30;49.67;;;23.10;38.70;;;;;;5111303;28;20378;-73
2023/05/22 11:56:22;;;;;;;69.33;47.93;;;23.00;39.60;;;;;;5110250;28;20406;-73
2023/05/22 11:58:48;;;;;;;78.07;47.67;;;23.30;39.30;;;;;;5101216;28;20397;-73
2023/05/22 12:01:15;;;;;;;71.33;48.13;;;23.50;35.50;;;;;;5096942;28;20374;-73
2023/05/22 12:03:40;;;;;;;72.70;47.65;;;23.40;36.30;;;;;;5105750;28;20374;-74
2023/05/22 12:06:07;;;;;;;79.10;48.80;;;23.70;36.60;;;;;;5092276;28;20378;-74
2023/05/22 12:08:33;;;;;;;75.63;47.45;;;23.60;35.40;;;;;;5092478;28;20476;-73
2023/05/22 12:10:58;;;;;;;71.60;48.85;;;23.70;35.80;;;;;;5091893;28;20941;-74
2023/05/22 12:13:26;;;;;;;68.00;46.70;;;23.90;36.70;;;;;;5092022;28;20385;-72
2023/05/22 12:15:54;;;;;;;69.78;47.17;;;24.00;36.80;;;;;;5092167;28;20381;-73
2023/05/22 12:18:20;;;;;;;74.32;48.30;;;24.30;35.60;;;;;;5092230;28;20718;-74
2023/05/22 12:20:46;;;;;;;79.05;49.33;;;23.80;36.00;;;;;;5092355;28;20481;-74
2023/05/22 12:23:22;;;;;;;84.07;48.50;;;23.30;39.90;;;;;;5092291;28;20379;-73
2023/05/22 12:25:56;;;;;;;75.22;49.88;;;23.20;39.70;;;;;;5092749;28;20815;-74
2023/05/22 12:28:21;;;;;;;78.10;50.70;;;23.60;38.00;;;;;;5092679;28;20370;-73